sensor_id;sensor_type;location;lat;lon;timestamp;temperature;humidity
22558;DHT22;11445;53.816;8.902;2024-02-26T00:02:02;2.70;99.90
22558;DHT22;11445;53.816;8.902;2024-02-26T00:04:29;2.70;99.90
22558;DHT22;11445;53.816;8.902;2024-02-26T00:06:57;2.70;99.90
22558;DHT22;11445;53.816;8.902;2024-02-26T00:09:24;2.70;99.90
22558;DHT22;11445;53.816;8.902;2024-02-26T00:11:51;2.70;99.90
22558;DHT22;11445;53.816;8.902;2024-02-26T00:14:18;2.80;99.90
22558;DHT22;11445;53.816;8.902;2024-02-26T00:16:45;2.90;99.90
22558;DHT22;11445;53.816;8.902;2024-02-26T00:19:12;2.90;99.90
22558;DHT22;11445;53.816;8.902;2024-02-26T00:21:40;2.90;99.90
22558;DHT22;11445;53.816;8.902;2024-02-26T00:24:09;2.90;99.90
22558;DHT22;11445;53.816;8.902;2024-02-26T00:26:35;2.90;99.90
22558;DHT22;11445;53.816;8.902;2024-02-26T00:29:02;2.90;99.90
22558;DHT22;11445;53.816;8.902;2024-02-26T00:31:29;2.90;99.90
22558;DHT22;11445;53.816;8.902;2024-02-26T00:33:56;2.90;99.90
22558;DHT22;11445;53.816;8.902;2024-02-26T00:36:23;2.90;99.90
22558;DHT22;11445;53.816;8.902;2024-02-26T00:38:50;2.90;99.90
22558;DHT22;11445;53.816;8.902;2024-02-26T00:41:20;3.00;99.90
22558;DHT22;11445;53.816;8.902;2024-02-26T00:43:47;3.00;99.90
22558;DHT22;11445;53.816;8.902;2024-02-26T00:46:14;3.10;99.90
22558;DHT22;11445;53.816;8.902;2024-02-26T00:48:41;3.10;99.90
22558;DHT22;11445;53.816;8.902;2024-02-26T00:51:07;3.20;99.90
22558;DHT22;11445;53.816;8.902;2024-02-26T00:53:34;3.20;99.90
22558;DHT22;11445;53.816;8.902;2024-02-26T00:56:01;3.30;99.90
22558;DHT22;11445;53.816;8.902;2024-02-26T00:58:29;3.30;99.90
22558;DHT22;11445;53.816;8.902;2024-02-26T01:00:56;3.30;99.90
22558;DHT22;11445;53.816;8.902;2024-02-26T01:03:23;3.30;99.90
22558;DHT22;11445;53.816;8.902;2024-02-26T01:05:50;3.30;99.90
22558;DHT22;11445;53.816;8.902;2024-02-26T01:08:17;3.40;99.90
22558;DHT22;11445;53.816;8.902;2024-02-26T01:10:43;3.40;99.90
22558;DHT22;11445;53.816;8.902;2024-02-26T01:13:10;3.40;99.90
22558;DHT22;11445;53.816;8.902;2024-02-26T01:15:39;3.40;99.90
22558;DHT22;11445;53.816;8.902;2024-02-26T01:18:05;3.40;99.90
22558;DHT22;11445;53.816;8.902;2024-02-26T01:20:32;3.40;99.90
22558;DHT22;11445;53.816;8.902;2024-02-26T01:22:59;3.50;99.90
22558;DHT22;11445;53.816;8.902;2024-02-26T01:25:26;3.50;99.90
22558;DHT22;11445;53.816;8.902;2024-02-26T01:27:53;3.50;99.90
22558;DHT22;11445;53.816;8.902;2024-02-26T01:30:21;3.40;99.90
22558;DHT22;11445;53.816;8.902;2024-02-26T01:32:49;3.40;99.90
22558;DHT22;11445;53.816;8.902;2024-02-26T01:35:16;3.40;99.90
22558;DHT22;11445;53.816;8.902;2024-02-26T01:37:42;3.40;99.90
22558;DHT22;11445;53.816;8.902;2024-02-26T01:40:10;3.40;99.90
22558;DHT22;11445;53.816;8.902;2024-02-26T01:42:38;3.40;99.90
22558;DHT22;11445;53.816;8.902;2024-02-26T01:45:09;3.30;99.90
22558;DHT22;11445;53.816;8.902;2024-02-26T01:47:40;3.30;99.90
22558;DHT22;11445;53.816;8.902;2024-02-26T01:50:09;3.30;99.90
22558;DHT22;11445;53.816;8.902;2024-02-26T01:52:36;3.30;99.90
22558;DHT22;11445;53.816;8.902;2024-02-26T01:55:03;3.30;99.90
22558;DHT22;11445;53.816;8.902;2024-02-26T01:57:30;3.30;99.90
22558;DHT22;11445;53.816;8.902;2024-02-26T01:59:57;3.30;99.90
22558;DHT22;11445;53.816;8.902;2024-02-26T02:02:24;3.30;99.90
22558;DHT22;11445;53.816;8.902;2024-02-26T02:04:51;3.40;99.90
22558;DHT22;11445;53.816;8.902;2024-02-26T02:07:20;3.40;99.90
22558;DHT22;11445;53.816;8.902;2024-02-26T02:09:48;3.40;99.90
22558;DHT22;11445;53.816;8.902;2024-02-26T02:12:15;3.40;99.90
22558;DHT22;11445;53.816;8.902;2024-02-26T02:14:41;3.40;99.90
22558;DHT22;11445;53.816;8.902;2024-02-26T02:17:08;3.50;99.90
22558;DHT22;11445;53.816;8.902;2024-02-26T02:19:35;3.50;99.90
22558;DHT22;11445;53.816;8.902;2024-02-26T02:22:04;3.50;99.90
22558;DHT22;11445;53.816;8.902;2024-02-26T02:24:31;3.40;99.90
22558;DHT22;11445;53.816;8.902;2024-02-26T02:26:57;3.40;99.90
22558;DHT22;11445;53.816;8.902;2024-02-26T02:29:24;3.40;99.90
22558;DHT22;11445;53.816;8.902;2024-02-26T02:31:53;3.40;99.90
22558;DHT22;11445;53.816;8.902;2024-02-26T02:34:21;3.40;99.90
22558;DHT22;11445;53.816;8.902;2024-02-26T02:36:49;3.40;99.90
22558;DHT22;11445;53.816;8.902;2024-02-26T02:39:17;3.40;99.90
22558;DHT22;11445;53.816;8.902;2024-02-26T02:41:44;3.40;99.90
22558;DHT22;11445;53.816;8.902;2024-02-26T02:44:11;3.30;99.90
22558;DHT22;11445;53.816;8.902;2024-02-26T02:46:38;3.30;99.90
22558;DHT22;11445;53.816;8.902;2024-02-26T02:49:08;3.30;99.90
22558;DHT22;11445;53.816;8.902;2024-02-26T02:51:35;3.30;99.90
22558;DHT22;11445;53.816;8.902;2024-02-26T02:54:01;3.30;99.90
22558;DHT22;11445;53.816;8.902;2024-02-26T02:56:29;3.30;99.90
22558;DHT22;11445;53.816;8.902;2024-02-26T02:58:56;3.30;99.90
22558;DHT22;11445;53.816;8.902;2024-02-26T03:01:23;3.30;99.90
22558;DHT22;11445;53.816;8.902;2024-02-26T03:03:50;3.30;99.90
22558;DHT22;11445;53.816;8.902;2024-02-26T03:06:17;3.30;99.90
22558;DHT22;11445;53.816;8.902;2024-02-26T03:08:44;3.20;99.90
22558;DHT22;11445;53.816;8.902;2024-02-26T03:11:13;3.20;99.90
22558;DHT22;11445;53.816;8.902;2024-02-26T03:13:42;3.20;99.90
22558;DHT22;11445;53.816;8.902;2024-02-26T03:16:09;3.20;99.90
22558;DHT22;11445;53.816;8.902;2024-02-26T03:18:38;3.20;99.90
22558;DHT22;11445;53.816;8.902;2024-02-26T03:21:04;3.20;99.90
22558;DHT22;11445;53.816;8.902;2024-02-26T03:23:31;3.20;99.90
22558;DHT22;11445;53.816;8.902;2024-02-26T03:26:02;3.20;99.90
22558;DHT22;11445;53.816;8.902;2024-02-26T03:28:29;3.20;99.90
22558;DHT22;11445;53.816;8.902;2024-02-26T03:30:57;3.20;99.90
22558;DHT22;11445;53.816;8.902;2024-02-26T03:33:24;3.20;99.90
22558;DHT22;11445;53.816;8.902;2024-02-26T03:35:51;3.20;99.90
22558;DHT22;11445;53.816;8.902;2024-02-26T03:38:18;3.20;99.90
22558;DHT22;11445;53.816;8.902;2024-02-26T03:40:45;3.20;99.90
22558;DHT22;11445;53.816;8.902;2024-02-26T03:43:11;3.20;99.90
22558;DHT22;11445;53.816;8.902;2024-02-26T03:45:38;3.20;99.90
22558;DHT22;11445;53.816;8.902;2024-02-26T03:48:07;3.10;99.90
22558;DHT22;11445;53.816;8.902;2024-02-26T03:50:34;3.10;99.90
22558;DHT22;11445;53.816;8.902;2024-02-26T03:53:01;3.10;99.90
22558;DHT22;11445;53.816;8.902;2024-02-26T03:55:28;3.10;99.90
22558;DHT22;11445;53.816;8.902;2024-02-26T03:57:55;3.10;99.90
22558;DHT22;11445;53.816;8.902;2024-02-26T04:00:22;3.10;99.90
22558;DHT22;11445;53.816;8.902;2024-02-26T04:02:49;3.10;99.90
22558;DHT22;11445;53.816;8.902;2024-02-26T04:05:17;3.10;99.90
22558;DHT22;11445;53.816;8.902;2024-02-26T04:07:44;3.10;99.90
22558;DHT22;11445;53.816;8.902;2024-02-26T04:10:11;3.10;99.90
22558;DHT22;11445;53.816;8.902;2024-02-26T04:12:38;3.10;99.90
22558;DHT22;11445;53.816;8.902;2024-02-26T04:15:07;3.20;99.90
22558;DHT22;11445;53.816;8.902;2024-02-26T04:17:34;3.10;99.90
22558;DHT22;11445;53.816;8.902;2024-02-26T04:20:01;3.10;99.90
22558;DHT22;11445;53.816;8.902;2024-02-26T04:22:30;3.20;99.90
22558;DHT22;11445;53.816;8.902;2024-02-26T04:24:57;3.10;99.90
22558;DHT22;11445;53.816;8.902;2024-02-26T04:27:24;3.10;99.90
22558;DHT22;11445;53.816;8.902;2024-02-26T04:29:51;3.10;99.90
22558;DHT22;11445;53.816;8.902;2024-02-26T04:32:18;3.10;99.90
22558;DHT22;11445;53.816;8.902;2024-02-26T04:34:44;3.10;99.90
22558;DHT22;11445;53.816;8.902;2024-02-26T04:37:11;3.10;99.90
22558;DHT22;11445;53.816;8.902;2024-02-26T04:39:39;3.10;99.90
22558;DHT22;11445;53.816;8.902;2024-02-26T04:42:06;3.10;99.90
22558;DHT22;11445;53.816;8.902;2024-02-26T04:44:33;3.10;99.90
22558;DHT22;11445;53.816;8.902;2024-02-26T04:47:00;3.10;99.90
22558;DHT22;11445;53.816;8.902;2024-02-26T04:49:27;3.10;99.90
22558;DHT22;11445;53.816;8.902;2024-02-26T04:51:54;3.00;99.90
22558;DHT22;11445;53.816;8.902;2024-02-26T04:54:21;3.00;99.90
22558;DHT22;11445;53.816;8.902;2024-02-26T04:56:49;3.00;99.90
22558;DHT22;11445;53.816;8.902;2024-02-26T04:59:16;3.00;99.90
22558;DHT22;11445;53.816;8.902;2024-02-26T05:01:43;3.00;99.90
22558;DHT22;11445;53.816;8.902;2024-02-26T05:04:09;3.00;99.90
22558;DHT22;11445;53.816;8.902;2024-02-26T05:06:37;3.00;99.90
22558;DHT22;11445;53.816;8.902;2024-02-26T05:09:04;3.00;99.90
22558;DHT22;11445;53.816;8.902;2024-02-26T05:11:30;3.00;99.90
22558;DHT22;11445;53.816;8.902;2024-02-26T05:13:59;3.00;99.90
22558;DHT22;11445;53.816;8.902;2024-02-26T05:16:26;3.00;99.90
22558;DHT22;11445;53.816;8.902;2024-02-26T05:18:55;3.10;99.90
22558;DHT22;11445;53.816;8.902;2024-02-26T05:21:22;3.00;99.90
22558;DHT22;11445;53.816;8.902;2024-02-26T05:23:49;3.00;99.90
22558;DHT22;11445;53.816;8.902;2024-02-26T05:26:19;3.00;99.90
22558;DHT22;11445;53.816;8.902;2024-02-26T05:28:47;3.00;99.90
22558;DHT22;11445;53.816;8.902;2024-02-26T05:31:15;3.00;99.90
22558;DHT22;11445;53.816;8.902;2024-02-26T05:33:43;3.00;99.90
22558;DHT22;11445;53.816;8.902;2024-02-26T05:36:10;3.00;99.90
22558;DHT22;11445;53.816;8.902;2024-02-26T05:38:37;2.90;99.90
22558;DHT22;11445;53.816;8.902;2024-02-26T05:41:04;2.90;99.90
22558;DHT22;11445;53.816;8.902;2024-02-26T05:43:31;2.90;99.90
22558;DHT22;11445;53.816;8.902;2024-02-26T05:45:58;2.90;99.90
22558;DHT22;11445;53.816;8.902;2024-02-26T05:48:26;2.90;99.90
22558;DHT22;11445;53.816;8.902;2024-02-26T05:50:53;2.90;99.90
22558;DHT22;11445;53.816;8.902;2024-02-26T05:53:20;2.90;99.90
22558;DHT22;11445;53.816;8.902;2024-02-26T05:55:46;2.80;99.90
22558;DHT22;11445;53.816;8.902;2024-02-26T05:58:13;2.90;99.90
22558;DHT22;11445;53.816;8.902;2024-02-26T06:00:40;2.90;99.90
22558;DHT22;11445;53.816;8.902;2024-02-26T06:03:07;2.90;99.90
22558;DHT22;11445;53.816;8.902;2024-02-26T06:05:35;2.90;99.90
22558;DHT22;11445;53.816;8.902;2024-02-26T06:08:02;2.90;99.90
22558;DHT22;11445;53.816;8.902;2024-02-26T06:10:29;2.80;99.90
22558;DHT22;11445;53.816;8.902;2024-02-26T06:12:56;2.80;99.90
22558;DHT22;11445;53.816;8.902;2024-02-26T06:15:22;2.80;99.90
22558;DHT22;11445;53.816;8.902;2024-02-26T06:17:49;2.80;99.90
22558;DHT22;11445;53.816;8.902;2024-02-26T06:20:16;2.80;99.90
22558;DHT22;11445;53.816;8.902;2024-02-26T06:22:44;2.70;99.90
22558;DHT22;11445;53.816;8.902;2024-02-26T06:25:11;2.70;99.90
22558;DHT22;11445;53.816;8.902;2024-02-26T06:27:38;2.80;99.90
22558;DHT22;11445;53.816;8.902;2024-02-26T06:30:06;2.70;99.90
22558;DHT22;11445;53.816;8.902;2024-02-26T06:32:34;2.70;99.90
22558;DHT22;11445;53.816;8.902;2024-02-26T06:35:01;2.70;99.90
22558;DHT22;11445;53.816;8.902;2024-02-26T06:37:32;2.80;99.90
22558;DHT22;11445;53.816;8.902;2024-02-26T06:40:00;2.80;99.90
22558;DHT22;11445;53.816;8.902;2024-02-26T06:42:29;2.80;99.90
22558;DHT22;11445;53.816;8.902;2024-02-26T06:44:57;2.80;99.90
22558;DHT22;11445;53.816;8.902;2024-02-26T06:47:24;2.80;99.90
22558;DHT22;11445;53.816;8.902;2024-02-26T06:49:51;2.80;99.90
22558;DHT22;11445;53.816;8.902;2024-02-26T06:52:18;2.80;99.90
22558;DHT22;11445;53.816;8.902;2024-02-26T06:54:45;3.40;99.90
22558;DHT22;11445;53.816;8.902;2024-02-26T06:57:15;3.90;99.90
22558;DHT22;11445;53.816;8.902;2024-02-26T06:59:41;4.00;99.90
22558;DHT22;11445;53.816;8.902;2024-02-26T07:02:11;3.90;99.90
22558;DHT22;11445;53.816;8.902;2024-02-26T07:04:38;3.80;99.90
22558;DHT22;11445;53.816;8.902;2024-02-26T07:07:05;3.70;99.90
22558;DHT22;11445;53.816;8.902;2024-02-26T07:09:31;3.60;99.90
22558;DHT22;11445;53.816;8.902;2024-02-26T07:11:58;3.50;99.90
22558;DHT22;11445;53.816;8.902;2024-02-26T07:14:26;3.50;99.90
22558;DHT22;11445;53.816;8.902;2024-02-26T07:16:53;3.40;99.90
22558;DHT22;11445;53.816;8.902;2024-02-26T07:19:20;3.30;99.90
22558;DHT22;11445;53.816;8.902;2024-02-26T07:21:47;3.30;99.90
22558;DHT22;11445;53.816;8.902;2024-02-26T07:24:14;3.30;99.90
22558;DHT22;11445;53.816;8.902;2024-02-26T07:26:41;3.30;99.90
22558;DHT22;11445;53.816;8.902;2024-02-26T07:29:07;3.20;99.90
22558;DHT22;11445;53.816;8.902;2024-02-26T07:31:36;3.20;99.90
22558;DHT22;11445;53.816;8.902;2024-02-26T07:34:02;3.20;99.90
22558;DHT22;11445;53.816;8.902;2024-02-26T07:36:29;3.20;99.90
22558;DHT22;11445;53.816;8.902;2024-02-26T07:38:56;3.20;99.90
22558;DHT22;11445;53.816;8.902;2024-02-26T07:41:23;3.20;99.90
22558;DHT22;11445;53.816;8.902;2024-02-26T07:43:50;3.20;99.90
22558;DHT22;11445;53.816;8.902;2024-02-26T07:46:18;3.20;99.90
22558;DHT22;11445;53.816;8.902;2024-02-26T07:48:46;3.20;99.90
22558;DHT22;11445;53.816;8.902;2024-02-26T07:51:13;3.20;99.90
22558;DHT22;11445;53.816;8.902;2024-02-26T07:53:40;3.20;99.90
22558;DHT22;11445;53.816;8.902;2024-02-26T07:56:07;3.20;99.90
22558;DHT22;11445;53.816;8.902;2024-02-26T07:58:34;3.30;99.90
22558;DHT22;11445;53.816;8.902;2024-02-26T08:01:01;3.30;99.90
22558;DHT22;11445;53.816;8.902;2024-02-26T08:03:28;3.30;99.90
22558;DHT22;11445;53.816;8.902;2024-02-26T08:05:56;3.40;99.90
22558;DHT22;11445;53.816;8.902;2024-02-26T08:08:23;3.40;99.90
22558;DHT22;11445;53.816;8.902;2024-02-26T08:10:49;3.40;99.90
22558;DHT22;11445;53.816;8.902;2024-02-26T08:13:16;3.40;99.90
22558;DHT22;11445;53.816;8.902;2024-02-26T08:15:43;3.30;99.90
22558;DHT22;11445;53.816;8.902;2024-02-26T08:18:10;3.40;99.90
22558;DHT22;11445;53.816;8.902;2024-02-26T08:20:37;3.40;99.90
22558;DHT22;11445;53.816;8.902;2024-02-26T08:23:05;3.40;99.90
22558;DHT22;11445;53.816;8.902;2024-02-26T08:25:32;3.50;99.90
22558;DHT22;11445;53.816;8.902;2024-02-26T08:27:59;3.50;99.90
22558;DHT22;11445;53.816;8.902;2024-02-26T08:30:26;3.50;99.90
22558;DHT22;11445;53.816;8.902;2024-02-26T08:32:53;3.60;99.90
22558;DHT22;11445;53.816;8.902;2024-02-26T08:35:20;3.60;99.90
22558;DHT22;11445;53.816;8.902;2024-02-26T08:37:47;3.70;99.90
22558;DHT22;11445;53.816;8.902;2024-02-26T08:40:15;3.70;99.90
22558;DHT22;11445;53.816;8.902;2024-02-26T08:42:42;3.70;99.90
22558;DHT22;11445;53.816;8.902;2024-02-26T08:45:09;3.70;99.90
22558;DHT22;11445;53.816;8.902;2024-02-26T08:47:36;3.80;99.90
22558;DHT22;11445;53.816;8.902;2024-02-26T08:50:04;3.80;99.90
22558;DHT22;11445;53.816;8.902;2024-02-26T08:52:31;3.80;99.90
22558;DHT22;11445;53.816;8.902;2024-02-26T08:54:59;3.80;99.90
22558;DHT22;11445;53.816;8.902;2024-02-26T08:57:27;3.80;99.90
22558;DHT22;11445;53.816;8.902;2024-02-26T08:59:54;3.80;99.90
22558;DHT22;11445;53.816;8.902;2024-02-26T09:02:21;3.90;99.90
22558;DHT22;11445;53.816;8.902;2024-02-26T09:04:47;3.90;99.90
22558;DHT22;11445;53.816;8.902;2024-02-26T09:07:16;3.90;99.90
22558;DHT22;11445;53.816;8.902;2024-02-26T09:09:43;3.90;99.90
22558;DHT22;11445;53.816;8.902;2024-02-26T09:12:10;4.00;99.90
22558;DHT22;11445;53.816;8.902;2024-02-26T09:14:38;4.00;99.90
22558;DHT22;11445;53.816;8.902;2024-02-26T09:17:05;4.00;99.90
22558;DHT22;11445;53.816;8.902;2024-02-26T09:19:33;3.90;99.90
22558;DHT22;11445;53.816;8.902;2024-02-26T09:22:00;3.90;99.90
22558;DHT22;11445;53.816;8.902;2024-02-26T09:24:27;3.90;99.90
22558;DHT22;11445;53.816;8.902;2024-02-26T09:26:53;3.90;99.90
22558;DHT22;11445;53.816;8.902;2024-02-26T09:29:20;3.90;99.90
22558;DHT22;11445;53.816;8.902;2024-02-26T09:31:48;3.90;99.90
22558;DHT22;11445;53.816;8.902;2024-02-26T09:34:15;3.80;99.90
22558;DHT22;11445;53.816;8.902;2024-02-26T09:36:43;3.80;99.90
22558;DHT22;11445;53.816;8.902;2024-02-26T09:39:10;3.70;99.90
22558;DHT22;11445;53.816;8.902;2024-02-26T09:41:40;3.70;99.90
22558;DHT22;11445;53.816;8.902;2024-02-26T09:44:07;3.70;99.90
22558;DHT22;11445;53.816;8.902;2024-02-26T09:46:35;3.60;99.90
22558;DHT22;11445;53.816;8.902;2024-02-26T09:49:02;3.40;99.90
22558;DHT22;11445;53.816;8.902;2024-02-26T09:51:29;3.30;99.90
22558;DHT22;11445;53.816;8.902;2024-02-26T09:53:59;3.20;99.90
22558;DHT22;11445;53.816;8.902;2024-02-26T09:56:27;3.10;99.90
22558;DHT22;11445;53.816;8.902;2024-02-26T09:58:56;3.10;99.90
22558;DHT22;11445;53.816;8.902;2024-02-26T10:01:24;3.10;99.90
22558;DHT22;11445;53.816;8.902;2024-02-26T10:03:54;3.10;99.90
22558;DHT22;11445;53.816;8.902;2024-02-26T10:06:23;3.00;99.90
22558;DHT22;11445;53.816;8.902;2024-02-26T10:08:51;3.10;99.90
22558;DHT22;11445;53.816;8.902;2024-02-26T10:11:18;3.10;99.90
22558;DHT22;11445;53.816;8.902;2024-02-26T10:13:45;3.10;99.90
22558;DHT22;11445;53.816;8.902;2024-02-26T10:16:12;3.20;99.90
22558;DHT22;11445;53.816;8.902;2024-02-26T10:18:46;3.30;99.90
22558;DHT22;11445;53.816;8.902;2024-02-26T10:21:15;3.40;99.90
22558;DHT22;11445;53.816;8.902;2024-02-26T10:23:44;3.40;99.90
22558;DHT22;11445;53.816;8.902;2024-02-26T10:26:13;3.40;99.90
22558;DHT22;11445;53.816;8.902;2024-02-26T10:28:41;3.50;99.90
22558;DHT22;11445;53.816;8.902;2024-02-26T10:31:09;3.50;99.90
22558;DHT22;11445;53.816;8.902;2024-02-26T10:33:37;3.50;99.90
22558;DHT22;11445;53.816;8.902;2024-02-26T10:36:05;3.50;99.90
22558;DHT22;11445;53.816;8.902;2024-02-26T10:38:33;3.50;99.90
22558;DHT22;11445;53.816;8.902;2024-02-26T10:41:03;3.60;99.90
22558;DHT22;11445;53.816;8.902;2024-02-26T10:43:30;3.60;99.90
22558;DHT22;11445;53.816;8.902;2024-02-26T10:45:57;3.70;99.90
22558;DHT22;11445;53.816;8.902;2024-02-26T10:48:24;3.70;99.90
22558;DHT22;11445;53.816;8.902;2024-02-26T10:50:51;3.80;99.90
22558;DHT22;11445;53.816;8.902;2024-02-26T10:53:20;3.90;99.90
22558;DHT22;11445;53.816;8.902;2024-02-26T10:55:49;4.00;99.90
22558;DHT22;11445;53.816;8.902;2024-02-26T10:58:18;4.10;99.90
22558;DHT22;11445;53.816;8.902;2024-02-26T11:00:45;4.10;99.90
22558;DHT22;11445;53.816;8.902;2024-02-26T11:03:14;4.10;99.90
22558;DHT22;11445;53.816;8.902;2024-02-26T11:05:43;4.20;99.90
22558;DHT22;11445;53.816;8.902;2024-02-26T11:08:11;4.30;99.90
22558;DHT22;11445;53.816;8.902;2024-02-26T11:10:38;4.30;99.90
22558;DHT22;11445;53.816;8.902;2024-02-26T11:13:10;4.40;99.90
22558;DHT22;11445;53.816;8.902;2024-02-26T11:15:40;4.50;99.90
22558;DHT22;11445;53.816;8.902;2024-02-26T11:18:08;4.60;99.90
22558;DHT22;11445;53.816;8.902;2024-02-26T11:20:38;4.70;99.90
22558;DHT22;11445;53.816;8.902;2024-02-26T11:23:07;4.80;99.90
22558;DHT22;11445;53.816;8.902;2024-02-26T11:25:35;4.90;99.90
22558;DHT22;11445;53.816;8.902;2024-02-26T11:28:05;4.90;99.90
22558;DHT22;11445;53.816;8.902;2024-02-26T11:30:35;5.00;99.90
22558;DHT22;11445;53.816;8.902;2024-02-26T11:33:06;5.00;99.90
22558;DHT22;11445;53.816;8.902;2024-02-26T11:35:34;5.10;99.90
22558;DHT22;11445;53.816;8.902;2024-02-26T11:38:03;5.10;99.90
22558;DHT22;11445;53.816;8.902;2024-02-26T11:40:32;5.20;99.90
22558;DHT22;11445;53.816;8.902;2024-02-26T11:42:59;5.30;99.90
22558;DHT22;11445;53.816;8.902;2024-02-26T11:45:48;5.30;99.90
22558;DHT22;11445;53.816;8.902;2024-02-26T11:48:22;5.40;99.90
22558;DHT22;11445;53.816;8.902;2024-02-26T11:50:50;5.40;99.90
22558;DHT22;11445;53.816;8.902;2024-02-26T11:53:21;5.40;99.90
22558;DHT22;11445;53.816;8.902;2024-02-26T11:55:48;5.40;99.90
22558;DHT22;11445;53.816;8.902;2024-02-26T11:58:15;5.50;99.90
22558;DHT22;11445;53.816;8.902;2024-02-26T12:00:42;5.50;99.90
22558;DHT22;11445;53.816;8.902;2024-02-26T12:03:09;5.50;99.90
22558;DHT22;11445;53.816;8.902;2024-02-26T12:05:39;5.50;99.90
22558;DHT22;11445;53.816;8.902;2024-02-26T12:08:07;5.60;99.90
22558;DHT22;11445;53.816;8.902;2024-02-26T12:10:36;5.70;99.90
22558;DHT22;11445;53.816;8.902;2024-02-26T12:13:06;5.70;99.90
22558;DHT22;11445;53.816;8.902;2024-02-26T12:15:33;5.80;99.90
22558;DHT22;11445;53.816;8.902;2024-02-26T12:18:03;5.80;99.90
22558;DHT22;11445;53.816;8.902;2024-02-26T12:20:31;5.80;99.90
22558;DHT22;11445;53.816;8.902;2024-02-26T12:22:59;5.80;99.90
22558;DHT22;11445;53.816;8.902;2024-02-26T12:25:28;5.90;99.90
22558;DHT22;11445;53.816;8.902;2024-02-26T12:27:55;5.90;99.90
22558;DHT22;11445;53.816;8.902;2024-02-26T12:30:22;5.80;99.90
22558;DHT22;11445;53.816;8.902;2024-02-26T12:32:51;5.80;99.90
22558;DHT22;11445;53.816;8.902;2024-02-26T12:35:18;5.70;99.90
22558;DHT22;11445;53.816;8.902;2024-02-26T12:37:45;5.70;99.90
22558;DHT22;11445;53.816;8.902;2024-02-26T12:40:14;5.70;99.90
22558;DHT22;11445;53.816;8.902;2024-02-26T12:42:41;5.70;99.90
22558;DHT22;11445;53.816;8.902;2024-02-26T12:45:09;5.70;99.90
22558;DHT22;11445;53.816;8.902;2024-02-26T12:47:37;5.70;99.90
22558;DHT22;11445;53.816;8.902;2024-02-26T12:50:05;5.70;99.90
22558;DHT22;11445;53.816;8.902;2024-02-26T12:52:33;5.70;99.90
22558;DHT22;11445;53.816;8.902;2024-02-26T12:55:01;5.70;99.90
22558;DHT22;11445;53.816;8.902;2024-02-26T12:57:30;5.70;99.90
22558;DHT22;11445;53.816;8.902;2024-02-26T12:59:58;5.70;99.90
22558;DHT22;11445;53.816;8.902;2024-02-26T13:02:25;5.70;99.90
22558;DHT22;11445;53.816;8.902;2024-02-26T13:04:53;5.70;99.90
22558;DHT22;11445;53.816;8.902;2024-02-26T13:07:20;5.60;99.90
22558;DHT22;11445;53.816;8.902;2024-02-26T13:09:47;5.60;99.90
22558;DHT22;11445;53.816;8.902;2024-02-26T13:12:15;5.60;99.90
22558;DHT22;11445;53.816;8.902;2024-02-26T13:14:44;5.60;99.90
22558;DHT22;11445;53.816;8.902;2024-02-26T13:17:11;5.60;99.90
22558;DHT22;11445;53.816;8.902;2024-02-26T13:19:37;5.70;99.90
22558;DHT22;11445;53.816;8.902;2024-02-26T13:22:15;5.70;99.90
22558;DHT22;11445;53.816;8.902;2024-02-26T13:24:42;5.70;99.90
22558;DHT22;11445;53.816;8.902;2024-02-26T13:27:09;5.70;99.90
22558;DHT22;11445;53.816;8.902;2024-02-26T13:29:36;5.70;99.90
22558;DHT22;11445;53.816;8.902;2024-02-26T13:32:04;5.80;99.90
22558;DHT22;11445;53.816;8.902;2024-02-26T13:34:32;5.80;99.90
22558;DHT22;11445;53.816;8.902;2024-02-26T13:37:00;5.70;99.90
22558;DHT22;11445;53.816;8.902;2024-02-26T13:39:28;5.70;99.90
22558;DHT22;11445;53.816;8.902;2024-02-26T13:41:55;5.70;99.90
22558;DHT22;11445;53.816;8.902;2024-02-26T13:44:23;5.70;99.90
22558;DHT22;11445;53.816;8.902;2024-02-26T13:46:50;5.70;99.90
22558;DHT22;11445;53.816;8.902;2024-02-26T13:49:18;5.70;99.90
22558;DHT22;11445;53.816;8.902;2024-02-26T13:51:45;5.80;99.90
22558;DHT22;11445;53.816;8.902;2024-02-26T13:54:12;5.80;99.90
22558;DHT22;11445;53.816;8.902;2024-02-26T13:56:40;5.80;99.90
22558;DHT22;11445;53.816;8.902;2024-02-26T13:59:07;5.70;99.90
22558;DHT22;11445;53.816;8.902;2024-02-26T14:01:33;5.70;99.90
22558;DHT22;11445;53.816;8.902;2024-02-26T14:04:00;5.80;99.90
22558;DHT22;11445;53.816;8.902;2024-02-26T14:06:31;5.80;99.90
22558;DHT22;11445;53.816;8.902;2024-02-26T14:08:58;5.80;99.90
22558;DHT22;11445;53.816;8.902;2024-02-26T14:11:25;5.80;99.90
22558;DHT22;11445;53.816;8.902;2024-02-26T14:13:54;5.80;99.90
22558;DHT22;11445;53.816;8.902;2024-02-26T14:16:21;5.80;99.90
22558;DHT22;11445;53.816;8.902;2024-02-26T14:18:48;5.80;99.90
22558;DHT22;11445;53.816;8.902;2024-02-26T14:21:15;5.80;99.90
22558;DHT22;11445;53.816;8.902;2024-02-26T14:23:43;5.80;99.90
22558;DHT22;11445;53.816;8.902;2024-02-26T14:26:11;5.80;99.90
22558;DHT22;11445;53.816;8.902;2024-02-26T14:28:38;5.80;99.90
22558;DHT22;11445;53.816;8.902;2024-02-26T14:31:06;5.80;99.90
22558;DHT22;11445;53.816;8.902;2024-02-26T14:33:37;5.80;99.90
22558;DHT22;11445;53.816;8.902;2024-02-26T14:36:07;5.80;99.90
22558;DHT22;11445;53.816;8.902;2024-02-26T14:38:34;5.90;99.90
22558;DHT22;11445;53.816;8.902;2024-02-26T14:41:03;5.90;99.90
22558;DHT22;11445;53.816;8.902;2024-02-26T14:43:30;5.90;99.90
22558;DHT22;11445;53.816;8.902;2024-02-26T14:45:58;5.90;99.90
22558;DHT22;11445;53.816;8.902;2024-02-26T14:48:25;5.90;99.90
22558;DHT22;11445;53.816;8.902;2024-02-26T14:50:52;5.90;99.90
22558;DHT22;11445;53.816;8.902;2024-02-26T14:53:19;5.90;99.90
22558;DHT22;11445;53.816;8.902;2024-02-26T14:55:46;5.90;99.90
22558;DHT22;11445;53.816;8.902;2024-02-26T14:58:14;5.90;99.90
22558;DHT22;11445;53.816;8.902;2024-02-26T15:00:41;5.90;99.90
22558;DHT22;11445;53.816;8.902;2024-02-26T15:03:08;5.90;99.90
22558;DHT22;11445;53.816;8.902;2024-02-26T15:05:35;6.00;99.90
22558;DHT22;11445;53.816;8.902;2024-02-26T15:08:02;6.00;99.90
22558;DHT22;11445;53.816;8.902;2024-02-26T15:10:29;6.00;99.90
22558;DHT22;11445;53.816;8.902;2024-02-26T15:12:56;6.00;99.90
22558;DHT22;11445;53.816;8.902;2024-02-26T15:15:23;6.00;99.90
22558;DHT22;11445;53.816;8.902;2024-02-26T15:17:50;6.00;99.90
22558;DHT22;11445;53.816;8.902;2024-02-26T15:20:18;6.00;99.90
22558;DHT22;11445;53.816;8.902;2024-02-26T15:22:45;6.00;99.90
22558;DHT22;11445;53.816;8.902;2024-02-26T15:25:12;5.90;99.90
22558;DHT22;11445;53.816;8.902;2024-02-26T15:27:39;5.90;99.90
22558;DHT22;11445;53.816;8.902;2024-02-26T15:30:07;5.90;99.90
22558;DHT22;11445;53.816;8.902;2024-02-26T15:32:35;5.90;99.90
22558;DHT22;11445;53.816;8.902;2024-02-26T15:35:02;5.90;99.90
22558;DHT22;11445;53.816;8.902;2024-02-26T15:37:29;5.90;99.90
22558;DHT22;11445;53.816;8.902;2024-02-26T15:39:56;5.90;99.90
22558;DHT22;11445;53.816;8.902;2024-02-26T15:42:23;5.90;99.90
22558;DHT22;11445;53.816;8.902;2024-02-26T15:44:50;5.90;99.90
22558;DHT22;11445;53.816;8.902;2024-02-26T15:47:17;6.00;99.90